Terminal Aerodrome Forecast
Issued by NWS Portland, OR

Home | Current Version | Previous Version | Text Only | Print | Product List | Glossary On
Versions: 1 2 3 4 5 6 7 8 9 10 11 12 13 14 15 16 17 18 19 20 21 22 23 24 25 26 27 28
000
FTUS46 KPQR 160854 AAA
TAFPDX
TAF AMD
KPDX 160854Z 1609/1706 19006KT P6SM -RA SCT025 OVC045
     FM161200 19006KT 6SM -RA BKN025 OVC035
     FM162000 21006KT P6SM -RA BKN030 OVC040
     FM170100 20005KT P6SM -RA OVC050=

USA.gov is the U.S. government's official web portal to all federal, state and local government web resources and services.